Latham, NY

2:04 AM EDT on June 02, 2015 (GMT -0400)
Latham (East) | | Change Station
CLOSE
Current Station
Personal Weather Station
Location: Latham, NY
Elevation: 295 ft
Nearby Weather Stations

Elev 295 ft 42.75 °N, 73.74 °W | Updated 3 minutes ago

Light Rain
Light Rain
50.3 °F
Feels Like 50.3 °F
N
0.0
Wind Variable Wind from ENE
Gusts 2.0 mph

Today
High -- | Low -- °F
--% Chance of Precip.
Yesterday
High -- | Low -- °F
Precip. -- in
5:19 AM 8:27 PM
Full, 100% visible
Pressure 30.18 in
Visibility 10.0 miles
Clouds Mostly Cloudy 500 ft
Overcast 2600 ft
Dew Point 48 °F
Humidity 93%
Rainfall 0.00 in
Snow Depth Not available.
UV 0 out of 12
Pollen 1.00 out of 12
Air Quality Not available.
Flu Activity Sporadic
METAR KALB 020551Z 21003KT 10SM -RA BKN005 OVC026 10/08 A3017 RMK AO2 RAB35 SLP218 BKN V SCT PCPN VRY LGT P0000 60000 T01000083 10117 20094 58011

More Conditions Fewer Conditions

Pressure 30.18 in
Visibility 10.0 miles
Clouds Mostly Cloudy 500 ft
Overcast 2600 ft
Dew Point 48 °F
Humidity 93%
Rainfall 0.00 in
Snow Depth Not available.
UV 0 out of 12
Pollen 1.00 out of 12
Air Quality Not available.
Flu Activity Sporadic
METAR KALB 020551Z 21003KT 10SM -RA BKN005 OVC026 10/08 A3017 RMK AO2 RAB35 SLP218 BKN V SCT PCPN VRY LGT P0000 60000 T01000083 10117 20094 58011

More Conditions Fewer Conditions

10-Day Weather Forecast

Almanac

Astronomy

Jun. 02, 2015 Rise Set
Actual Time
Civil Twilight
Nautical Twilight
Astronomical Twilight
Moon
Length of Visible Light
Length of Day
Tomorrow will be .
, % of the Moon is Illuminated

Today's Extremes

State Highs State Lows

Community

WunderPhotos

Upload Photos

1,825,922 photos uploaded!

WunderBlogs® & News

Nearby

Air Quality

  Air Quality AQ Index Pollutant
Not available.

Snow Depth

Station Depth Elevation

Earthquake Activity

City Distance Mag. Time & Date
Minimum magnitude displayed is 2.5.

Coastal Water Temperatures

Place Temperature

Stations

Nearby Weather Stations

Station Location Temp. Windchill Dew Point Humidity Wind Precip. Elev Updated Type